Time;durP1;ratioP1;P1;durP2;ratioP2;P2;SDS_P1;SDS_P2;PMS_P1;PMS_P2;Temp;Humidity;BMP_temperature;BMP_pressure;BME280_temperature;BME280_humidity;BME280_pressure;Samples;Min_cycle;Max_cycle;Signal;HPM_P1;HPM_P2
2022/09/06 00:00:34;;;;;;;7.88;5.82;;;;;;;19.05;81.96;99149.50;5080245;28;20462;-94
2022/09/06 00:03:01;;;;;;;9.38;5.50;;;;;;;18.98;82.77;99142.72;5078698;28;20371;-94
2022/09/06 00:05:27;;;;;;;9.77;6.53;;;;;;;18.92;81.47;99141.22;5080537;28;20040;-93
2022/09/06 00:07:53;;;;;;;11.85;6.13;;;;;;;18.89;82.18;99141.41;5079260;28;20502;-94
2022/09/06 00:10:19;;;;;;;11.45;6.10;;;;;;;18.87;82.07;99151.41;5079455;28;20044;-93
2022/09/06 00:12:46;;;;;;;10.60;6.47;;;;;;;18.92;81.84;99157.41;5076743;28;20045;-94
2022/09/06 00:15:13;;;;;;;10.70;6.05;;;;;;;18.95;80.99;99156.38;5077470;28;20047;-93
2022/09/06 00:17:39;;;;;;;10.18;6.57;;;;;;;18.97;80.25;99141.84;5077065;28;20127;-93
2022/09/06 00:20:08;;;;;;;10.52;7.38;;;;;;;18.91;79.97;99144.91;5076980;28;20078;-93
2022/09/06 00:22:35;;;;;;;8.80;6.10;;;;;;;19.05;80.34;99163.00;5078696;28;20052;-93
2022/09/06 00:25:01;;;;;;;9.82;6.38;;;;;;;18.90;80.71;99143.16;5077869;28;20501;-92
2022/09/06 00:27:27;;;;;;;9.43;6.13;;;;;;;18.88;80.57;99137.81;5079160;28;20048;-93
2022/09/06 00:29:53;;;;;;;9.82;6.18;;;;;;;18.92;81.10;99146.63;5078619;28;20109;-94
2022/09/06 00:32:20;;;;;;;10.05;6.40;;;;;;;19.05;80.57;99161.16;5077401;28;20070;-93
2022/09/06 00:34:46;;;;;;;9.70;6.15;;;;;;;19.25;79.11;99162.72;5077113;28;20044;-92
2022/09/06 00:37:12;;;;;;;9.10;6.43;;;;;;;19.13;79.48;99141.88;5076160;28;20047;-93
2022/09/06 00:39:38;;;;;;;8.88;5.63;;;;;;;19.23;79.58;99161.09;5077003;28;20041;-93
2022/09/06 00:42:07;;;;;;;14.00;6.28;;;;;;;19.11;80.40;99151.88;5076856;28;20053;-93
2022/09/06 00:44:32;;;;;;;;;;;;;;;19.13;80.87;99171.53;5078647;28;20097;-94
2022/09/06 00:46:58;;;;;;;10.10;6.07;;;;;;;18.94;80.40;99139.31;5078791;28;20015;-94
2022/09/06 00:49:29;;;;;;;8.77;6.00;;;;;;;19.05;80.83;99168.38;5077020;28;20041;-93
2022/09/06 00:52:00;;;;;;;8.57;5.75;;;;;;;18.85;80.74;99139.84;5077781;28;20052;-93
2022/09/06 00:54:27;;;;;;;9.98;6.57;;;;;;;18.82;81.05;99138.19;5079085;28;20582;-93
2022/09/06 00:56:54;;;;;;;9.27;6.22;;;;;;;18.94;80.64;99152.81;5079163;28;20072;-95
2022/09/06 00:59:20;;;;;;;8.80;5.60;;;;;;;18.73;81.01;99135.09;5080195;28;20040;-92
2022/09/06 01:01:46;;;;;;;9.80;6.45;;;;;;;18.79;80.75;99159.03;5080332;28;20045;-93
2022/09/06 01:04:13;;;;;;;8.00;5.85;;;;;;;18.72;81.29;99154.91;5079859;28;20424;-92
2022/09/06 01:06:53;;;;;;;9.00;6.00;;;;;;;18.76;82.68;99169.94;5077281;28;20041;-94
2022/09/06 01:09:33;;;;;;;10.43;5.50;;;;;;;18.66;81.58;99140.81;5076664;28;20048;-93
2022/09/06 01:12:19;;;;;;;9.48;6.07;;;;;;;18.65;81.18;99138.19;5078895;28;20118;-93
2022/09/06 01:15:04;;;;;;;11.68;6.45;;;;;;;18.55;82.19;99140.53;5079973;28;20051;-93
2022/09/06 01:17:42;;;;;;;9.23;5.45;;;;;;;18.63;82.97;99150.91;5079218;28;20066;-92
2022/09/06 01:20:31;;;;;;;9.27;5.50;;;;;;;18.53;83.26;99142.44;5079477;28;20033;-94
2022/09/06 01:23:33;;;;;;;8.20;5.50;;;;;;;18.61;83.55;99158.19;5078669;28;20208;-92
2022/09/06 01:26:09;;;;;;;9.38;5.88;;;;;;;18.49;83.83;99148.91;5078569;28;20049;-93
2022/09/06 01:28:41;;;;;;;9.93;5.43;;;;;;;18.58;84.91;99163.72;5078639;28;20072;-94
2022/09/06 01:31:19;;;;;;;9.90;5.75;;;;;;;18.55;84.95;99169.28;5078095;28;20067;-93
2022/09/06 01:33:50;;;;;;;8.45;5.45;;;;;;;18.35;85.11;99136.22;5078879;28;20094;-94
2022/09/06 01:36:21;;;;;;;9.60;5.72;;;;;;;18.33;85.45;99142.63;5079235;28;20142;-93
2022/09/06 01:38:48;;;;;;;9.93;5.93;;;;;;;18.34;86.13;99139.84;5079086;28;20048;-93
2022/09/06 01:41:13;;;;;;;14.57;6.07;;;;;;;18.28;85.90;99137.47;5078427;28;20048;-94
2022/09/06 01:43:46;;;;;;;8.43;5.53;;;;;;;18.32;85.80;99140.88;5077544;28;20043;-93
2022/09/06 01:46:19;;;;;;;10.20;5.80;;;;;;;18.30;86.75;99137.38;5078049;28;20059;-93
2022/09/06 01:49:11;;;;;;;8.63;5.95;;;;;;;18.43;87.00;99163.59;5076439;28;20078;-94
2022/09/06 01:51:47;;;;;;;8.65;5.85;;;;;;;18.37;86.54;99157.69;5077706;28;20075;-94
2022/09/06 01:54:27;;;;;;;12.27;5.90;;;;;;;18.33;87.83;99158.78;5077827;28;20060;-93
2022/09/06 01:57:02;;;;;;;9.27;5.20;;;;;;;18.22;87.65;99144.06;5078564;28;20061;-93
2022/09/06 01:59:54;;;;;;;9.65;5.72;;;;;;;18.26;87.33;99163.63;5076050;28;20521;-92
2022/09/06 02:02:27;;;;;;;8.10;5.80;;;;;;;18.21;87.65;99150.38;5059189;28;20044;-94
2022/09/06 02:05:00;;;;;;;9.38;5.53;;;;;;;18.23;88.11;99153.84;5076081;28;20048;-92
2022/09/06 02:07:28;;;;;;;11.75;5.93;;;;;;;18.19;88.67;99154.97;5076348;28;20036;-92
2022/09/06 02:10:00;;;;;;;12.02;5.95;;;;;;;18.21;89.17;99166.53;5076384;28;20071;-94
2022/09/06 02:12:30;;;;;;;8.32;5.63;;;;;;;18.25;89.07;99175.31;5077440;28;20059;-95
2022/09/06 02:15:03;;;;;;;10.32;6.38;;;;;;;17.98;89.25;99143.50;5076794;28;20135;-93
2022/09/06 02:17:31;;;;;;;11.55;5.82;;;;;;;17.98;88.90;99145.34;5077093;28;20377;-93
2022/09/06 02:20:02;;;;;;;12.07;6.10;;;;;;;17.94;88.60;99141.06;5077069;28;20132;-94
2022/09/06 02:22:32;;;;;;;9.40;6.07;;;;;;;18.10;88.68;99157.28;5075850;28;20048;-94
2022/09/06 02:25:00;;;;;;;12.40;5.93;;;;;;;17.95;88.93;99137.41;5077100;28;20051;-93
2022/09/06 02:27:26;;;;;;;10.48;6.05;;;;;;;17.88;88.81;99136.84;5077672;28;20049;-92
2022/09/06 02:29:52;;;;;;;9.50;6.07;;;;;;;17.95;88.43;99150.84;5077696;28;20051;-93
2022/09/06 02:32:21;;;;;;;9.73;5.82;;;;;;;17.96;89.02;99150.78;5077236;28;20040;-93
2022/09/06 02:34:47;;;;;;;;;;;;;;;17.96;90.35;99160.69;5077317;28;20072;-94
2022/09/06 02:37:15;;;;;;;9.20;5.75;;;;;;;17.80;90.49;99139.91;5077618;28;19927;-92
2022/09/06 02:39:42;;;;;;;8.75;6.22;;;;;;;17.91;90.44;99157.34;5075564;28;20033;-93
2022/09/06 02:42:10;;;;;;;11.63;6.20;;;;;;;17.69;91.39;99134.19;5077137;28;20448;-92
2022/09/06 02:44:36;;;;;;;9.70;6.22;;;;;;;17.80;91.84;99158.75;5078303;28;20114;-93
2022/09/06 02:47:02;;;;;;;9.13;6.25;;;;;;;17.64;91.00;99136.25;5079241;28;20033;-94
2022/09/06 02:49:30;;;;;;;9.90;6.22;;;;;;;17.64;91.61;99136.25;5078033;28;20040;-93
2022/09/06 02:51:56;;;;;;;10.02;6.40;;;;;;;17.85;91.76;99159.41;5079262;28;20032;-93
2022/09/06 02:54:22;;;;;;;10.65;6.75;;;;;;;17.67;91.82;99130.69;5076706;28;20502;-94
2022/09/06 02:56:48;;;;;;;12.20;6.57;;;;;;;17.67;92.16;99130.69;5077248;28;20048;-93
2022/09/06 02:59:14;;;;;;;10.68;6.15;;;;;;;17.63;92.51;99127.31;5077710;28;20121;-92
2022/09/06 03:01:41;;;;;;;9.93;6.97;;;;;;;17.85;92.59;99161.22;5075930;28;20048;-92
2022/09/06 03:04:07;;;;;;;12.30;6.90;;;;;;;17.81;92.43;99155.09;5075104;28;20098;-92
2022/09/06 03:06:34;;;;;;;12.18;6.78;;;;;;;17.82;92.12;99145.22;5075730;28;20068;-92
2022/09/06 03:09:00;;;;;;;10.13;6.60;;;;;;;17.89;91.85;99145.78;5076036;28;20048;-94
2022/09/06 03:11:27;;;;;;;11.65;6.68;;;;;;;17.89;92.16;99145.78;5078184;28;20090;-93
2022/09/06 03:13:53;;;;;;;9.25;6.50;;;;;;;17.94;92.54;99160.75;5078281;28;20486;-93
2022/09/06 03:16:19;;;;;;;10.80;6.82;;;;;;;17.74;92.37;99133.94;5080674;28;20067;-92
2022/09/06 03:18:45;;;;;;;9.80;6.70;;;;;;;17.77;92.74;99133.81;5079107;28;20049;-93
2022/09/06 03:21:11;;;;;;;12.40;7.85;;;;;;;17.66;93.67;99128.97;5078342;28;20040;-93
2022/09/06 03:23:39;;;;;;;11.07;7.03;;;;;;;17.74;94.03;99142.03;5076383;28;20108;-92
2022/09/06 03:26:06;;;;;;;10.18;6.63;;;;;;;17.74;94.32;99145.59;5075984;28;20062;-93
2022/09/06 03:28:32;;;;;;;12.23;6.85;;;;;;;17.58;95.39;99125.78;5075241;28;20494;-93
2022/09/06 03:30:58;;;;;;;11.65;6.65;;;;;;;17.52;96.87;99128.78;5077536;28;20044;-94
2022/09/06 03:33:24;;;;;;;10.93;7.38;;;;;;;17.60;96.70;99148.97;5079646;28;20543;-93
2022/09/06 03:35:52;;;;;;;10.23;6.97;;;;;;;17.50;97.14;99130.66;5078474;28;20072;-92
2022/09/06 03:38:19;;;;;;;10.27;6.57;;;;;;;17.37;97.43;99109.78;5078772;28;20038;-93
2022/09/06 03:40:47;;;;;;;10.27;6.55;;;;;;;17.37;97.50;99111.59;5078884;28;20048;-93
2022/09/06 03:43:15;;;;;;;10.05;6.82;;;;;;;17.33;97.76;99123.47;5079724;28;20127;-93
2022/09/06 03:45:48;;;;;;;12.25;7.65;;;;;;;17.28;98.28;99125.50;5081723;28;20048;-93
2022/09/06 03:48:15;;;;;;;10.05;7.20;;;;;;;17.34;98.36;99139.50;5083188;28;20079;-91
2022/09/06 03:50:44;;;;;;;14.75;7.28;;;;;;;17.35;98.00;99135.88;5079110;28;20110;-93
2022/09/06 03:53:10;;;;;;;10.68;6.97;;;;;;;17.36;98.66;99132.22;5078916;28;20041;-93
2022/09/06 03:55:36;;;;;;;11.00;7.47;;;;;;;17.33;99.59;99139.59;5080504;28;20102;-94
2022/09/06 03:58:04;;;;;;;11.82;6.97;;;;;;;17.20;100.00;99116.00;5080318;28;20041;-93
2022/09/06 04:00:33;;;;;;;12.20;7.70;;;;;;;17.22;99.70;99126.69;5072719;28;20048;-94
2022/09/06 04:02:59;;;;;;;11.40;7.03;;;;;;;17.35;99.28;99138.56;5079298;28;20384;-92
2022/09/06 04:05:25;;;;;;;12.73;7.80;;;;;;;17.36;99.75;99147.50;5078510;28;20040;-92
2022/09/06 04:07:51;;;;;;;10.93;6.60;;;;;;;17.16;99.96;99135.03;5079793;28;20036;-93
2022/09/06 04:10:17;;;;;;;11.63;7.03;;;;;;;17.14;100.00;99134.22;5079544;28;20541;-93
2022/09/06 04:12:44;;;;;;;12.15;7.07;;;;;;;17.15;100.00;99142.19;5080019;28;20052;-94
2022/09/06 04:15:13;;;;;;;11.50;6.63;;;;;;;17.04;100.00;99128.41;5079177;28;20115;-93
2022/09/06 04:17:42;;;;;;;13.32;6.65;;;;;;;17.08;100.00;99137.19;5079011;28;20063;-94
2022/09/06 04:20:09;;;;;;;10.27;7.50;;;;;;;17.21;100.00;99157.16;5080012;28;20049;-93
2022/09/06 04:22:35;;;;;;;10.88;7.05;;;;;;;17.03;100.00;99130.22;5078790;28;20083;-93
2022/09/06 04:25:01;;;;;;;11.10;6.72;;;;;;;16.97;100.00;99129.66;5081884;28;20036;-93
2022/09/06 04:27:28;;;;;;;9.13;6.60;;;;;;;17.14;100.00;99161.09;5079517;28;20080;-95
2022/09/06 04:29:55;;;;;;;9.68;6.60;;;;;;;17.07;100.00;99148.88;5081492;28;20464;-93
2022/09/06 04:32:22;;;;;;;12.07;7.22;;;;;;;16.96;100.00;99130.63;5081287;28;20078;-93
2022/09/06 04:34:48;;;;;;;12.63;7.63;;;;;;;16.99;100.00;99139.38;5079889;28;20044;-93
2022/09/06 04:37:18;;;;;;;11.35;7.53;;;;;;;17.02;100.00;99146.41;5079912;28;20055;-95
2022/09/06 04:39:44;;;;;;;11.50;7.45;;;;;;;17.08;100.00;99156.00;5081325;28;20053;-93
2022/09/06 04:42:10;;;;;;;11.77;7.95;;;;;;;16.93;100.00;99136.97;5084878;28;20067;-93
2022/09/06 04:44:36;;;;;;;12.13;7.72;;;;;;;16.99;100.00;99150.13;5083338;28;20048;-94
2022/09/06 04:47:05;;;;;;;12.20;6.68;;;;;;;16.92;100.00;99146.00;5085285;28;20045;-95
2022/09/06 04:49:32;;;;;;;12.10;7.40;;;;;;;16.95;100.00;99156.59;5086852;28;20048;-94
2022/09/06 04:51:58;;;;;;;11.85;7.22;;;;;;;16.77;100.00;99130.56;5085511;28;20044;-94
2022/09/06 04:54:24;;;;;;;13.63;7.40;;;;;;;16.80;100.00;99130.44;5085274;28;20075;-94
2022/09/06 04:56:50;;;;;;;13.30;7.22;;;;;;;16.83;100.00;99136.56;5084125;28;20102;-94
2022/09/06 04:59:16;;;;;;;12.25;7.30;;;;;;;16.89;100.00;99150.63;5085388;28;20041;-95
2022/09/06 05:01:42;;;;;;;15.57;8.25;;;;;;;16.94;100.00;99164.75;5082260;28;20059;-95
2022/09/06 05:04:08;;;;;;;14.60;8.05;;;;;;;16.95;100.00;99161.09;5083760;28;20045;-95
2022/09/06 05:06:38;;;;;;;12.10;8.32;;;;;;;16.86;100.00;99145.41;5084643;28;20044;-95
2022/09/06 05:09:04;;;;;;;15.60;7.80;;;;;;;16.90;100.00;99139.81;5083462;28;20490;-96
2022/09/06 05:11:30;;;;;;;14.75;8.07;;;;;;;16.98;100.00;99156.47;5083147;28;20104;-94
2022/09/06 05:13:56;;;;;;;11.70;8.00;;;;;;;16.88;100.00;99147.06;5083197;28;20075;-94
2022/09/06 05:16:22;;;;;;;11.93;7.68;;;;;;;16.92;100.00;99148.69;5082544;28;20075;-94
2022/09/06 05:18:48;;;;;;;13.10;7.93;;;;;;;16.94;100.00;99160.22;5082421;28;20045;-96
2022/09/06 05:21:14;;;;;;;13.93;8.48;;;;;;;17.02;100.00;99165.22;5082548;28;20044;-95
2022/09/06 05:23:42;;;;;;;12.98;7.90;;;;;;;16.99;100.00;99146.56;5082996;28;20040;-95
2022/09/06 05:26:08;;;;;;;11.10;8.13;;;;;;;17.00;100.00;99149.19;5084031;28;20045;-95
2022/09/06 05:28:35;;;;;;;15.63;8.18;;;;;;;17.01;100.00;99142.00;5082498;28;20053;-94
2022/09/06 05:31:08;;;;;;;13.05;7.93;;;;;;;17.20;100.00;99167.06;5082415;28;20048;-93
2022/09/06 05:33:34;;;;;;;14.45;8.20;;;;;;;17.30;100.00;99174.66;5082106;28;20040;-95
2022/09/06 05:36:00;;;;;;;13.00;8.20;;;;;;;17.23;100.00;99163.34;5083347;28;20040;-93
2022/09/06 05:38:26;;;;;;;13.90;8.13;;;;;;;17.33;100.00;99167.34;5084231;28;20502;-95
2022/09/06 05:40:54;;;;;;;12.95;7.88;;;;;;;17.39;100.00;99155.41;5085013;28;20044;-95
2022/09/06 05:43:20;;;;;;;13.88;7.85;;;;;;;17.54;100.00;99175.28;5084044;28;20048;-95
2022/09/06 05:45:46;;;;;;;13.82;8.57;;;;;;;17.61;100.00;99172.25;5082744;28;20044;-94
2022/09/06 05:48:12;;;;;;;13.00;7.90;;;;;;;17.85;100.00;99197.06;5083287;28;20127;-95
2022/09/06 05:50:38;;;;;;;15.88;8.23;;;;;;;17.84;98.26;99176.47;5082262;28;20075;-91
2022/09/06 05:53:04;;;;;;;16.20;8.48;;;;;;;18.10;98.04;99197.66;5081656;28;20127;-94
2022/09/06 05:55:29;;;;;;;12.15;8.23;;;;;;;18.19;97.10;99211.50;5082362;28;20055;-94
2022/09/06 05:57:57;;;;;;;17.65;8.20;;;;;;;18.17;96.99;99189.19;5083048;28;20045;-94
2022/09/06 06:00:24;;;;;;;14.77;8.20;;;;;;;18.32;95.90;99186.63;5082363;28;20044;-94
2022/09/06 06:02:51;;;;;;;13.18;7.90;;;;;;;18.38;95.39;99184.50;5083160;28;20040;-94
2022/09/06 06:05:17;;;;;;;12.30;7.95;;;;;;;18.52;94.77;99186.47;5083221;28;20100;-94
2022/09/06 06:07:43;;;;;;;12.40;7.78;;;;;;;18.63;94.01;99184.09;5083000;28;20055;-95
2022/09/06 06:10:10;;;;;;;15.10;8.73;;;;;;;18.74;91.81;99186.19;5082116;28;20071;-96
2022/09/06 06:12:36;;;;;;;15.98;8.95;;;;;;;18.79;90.43;99183.28;5083136;28;20104;-96
2022/09/06 06:15:05;;;;;;;13.90;8.27;;;;;;;18.94;90.75;99181.59;5088765;28;20041;-95
2022/09/06 06:17:31;;;;;;;13.57;9.35;;;;;;;18.98;89.38;99177.78;5086733;28;20040;-95
2022/09/06 06:19:58;;;;;;;12.82;8.52;;;;;;;19.09;90.05;99175.34;5087827;28;20102;-94
2022/09/06 06:22:29;;;;;;;12.07;8.50;;;;;;;19.42;88.39;99212.16;5089111;28;20044;-96
2022/09/06 06:24:55;;;;;;;17.73;8.77;;;;;;;19.37;86.77;99190.84;5089882;28;20044;-95
2022/09/06 06:27:21;;;;;;;18.45;9.73;;;;;;;19.46;86.23;99186.75;5088860;28;20048;-94
2022/09/06 06:29:48;;;;;;;15.63;8.82;;;;;;;19.60;86.68;99192.22;5089065;28;20046;-94
2022/09/06 06:32:33;;;;;;;13.68;9.15;;;;;;;19.68;86.97;99178.28;5091734;28;20067;-96
2022/09/06 06:35:00;;;;;;;18.13;9.75;;;;;;;19.85;84.59;99180.91;5089744;28;20067;-96
2022/09/06 06:37:26;;;;;;;14.55;8.88;;;;;;;20.03;84.13;99173.56;5091440;28;20059;-95
2022/09/06 06:39:53;;;;;;;16.85;9.77;;;;;;;20.30;81.55;99192.66;5092929;28;20565;-95
2022/09/06 06:42:22;;;;;;;12.85;8.20;;;;;;;20.32;81.43;99173.66;5091485;28;20048;-96
2022/09/06 06:44:52;;;;;;;15.70;8.38;;;;;;;20.51;80.62;99174.28;5095656;28;20048;-96
2022/09/06 06:54:24;;;;;;;14.07;8.57;;;;;;;21.30;77.88;99199.97;5084387;28;20121;-94
2022/09/06 06:56:51;;;;;;;17.13;8.00;;;;;;;21.43;77.76;99208.22;5093764;28;20055;-96
2022/09/06 06:59:17;;;;;;;14.18;7.88;;;;;;;21.41;76.33;99180.38;5088604;28;20044;-96
2022/09/06 07:01:44;;;;;;;12.70;8.18;;;;;;;21.53;75.11;99181.41;5089427;28;20051;-95
2022/09/06 07:04:14;;;;;;;13.18;7.85;;;;;;;21.69;73.45;99178.56;5086414;28;20048;-95
2022/09/06 07:06:46;;;;;;;14.27;8.85;;;;;;;21.55;73.43;99182.16;5095014;28;20051;-94
2022/09/06 07:09:13;;;;;;;10.77;8.02;;;;;;;21.53;76.01;99185.00;5098075;28;20058;-96
2022/09/06 07:15:43;;;;;;;14.82;8.10;;;;;;;21.93;72.52;99211.25;5089187;28;20040;-95
2022/09/06 07:21:45;;;;;;;12.05;8.50;;;;;;;21.98;72.87;99203.69;5090386;28;20040;-95
2022/09/06 07:44:56;;;;;;;15.45;8.48;;;;;;;23.05;67.92;99195.44;5095420;28;20044;-96
2022/09/06 07:47:22;;;;;;;12.05;8.05;;;;;;;23.00;69.45;99203.03;5097756;28;20072;-94
2022/09/06 07:49:48;;;;;;;14.02;9.02;;;;;;;23.07;68.48;99193.47;5096920;28;20044;-94
2022/09/06 07:52:14;;;;;;;13.23;8.75;;;;;;;22.69;69.49;99193.47;5096957;28;20028;-94
2022/09/06 07:54:40;;;;;;;14.50;8.95;;;;;;;22.77;70.39;99200.09;5097415;28;20055;-94
2022/09/06 07:57:06;;;;;;;15.93;8.98;;;;;;;23.00;69.53;99173.19;5096960;28;20050;-94
2022/09/06 07:59:32;;;;;;;16.42;9.75;;;;;;;23.19;69.31;99199.00;5096879;28;20059;-94
2022/09/06 08:01:59;;;;;;;12.20;8.30;;;;;;;23.27;67.66;99202.91;5097463;28;20044;-94
2022/09/06 08:04:25;;;;;;;14.00;8.07;;;;;;;23.45;66.59;99195.25;5097253;28;20044;-96
2022/09/06 08:06:51;;;;;;;13.90;8.45;;;;;;;23.56;66.30;99180.88;5096730;28;20519;-94
2022/09/06 08:09:17;;;;;;;12.98;8.80;;;;;;;23.88;65.33;99202.09;5096599;28;20122;-95
2022/09/06 08:11:43;;;;;;;10.10;8.10;;;;;;;24.15;65.75;99215.44;5096899;28;20051;-93
2022/09/06 08:14:09;;;;;;;13.93;8.20;;;;;;;24.27;64.17;99183.75;5097156;28;20119;-94
2022/09/06 08:16:36;;;;;;;12.98;8.18;;;;;;;24.42;63.27;99187.09;5096316;28;20048;-93
2022/09/06 08:19:07;;;;;;;14.48;8.50;;;;;;;24.62;61.70;99191.91;5096518;28;20051;-96
2022/09/06 08:21:34;;;;;;;12.38;7.80;;;;;;;24.66;61.86;99187.06;5096841;28;20052;-95
2022/09/06 08:24:02;;;;;;;10.57;7.10;;;;;;;24.88;61.73;99208.03;5096544;28;20039;-94
2022/09/06 08:26:30;;;;;;;11.37;8.03;;;;;;;24.78;61.65;99177.94;5096586;28;20493;-94
2022/09/06 08:28:58;;;;;;;12.77;7.93;;;;;;;24.89;61.30;99177.97;5099546;28;20044;-95
2022/09/06 08:31:26;;;;;;;14.48;7.45;;;;;;;25.08;61.26;99168.34;5107409;28;20044;-95
2022/09/06 08:33:52;;;;;;;10.48;7.22;;;;;;;25.28;60.65;99174.91;5097366;28;20040;-95
2022/09/06 08:36:20;;;;;;;12.80;7.18;;;;;;;25.29;59.58;99176.66;5095593;28;20071;-95
2022/09/06 08:38:46;;;;;;;10.75;7.15;;;;;;;25.33;59.95;99191.72;5076379;28;20041;-94
2022/09/06 08:41:23;;;;;;;10.75;6.85;;;;;;;25.36;58.30;99180.59;5076341;28;20155;-93
2022/09/06 08:43:56;;;;;;;10.02;7.25;;;;;;;24.89;60.99;99179.81;5075679;28;20052;-96
2022/09/06 08:46:28;;;;;;;10.02;7.13;;;;;;;25.01;61.31;99162.53;5075636;28;20127;-95
2022/09/06 08:48:54;;;;;;;13.02;7.78;;;;;;;25.35;59.82;99168.84;5075607;28;20044;-94
2022/09/06 08:51:51;;;;;;;14.07;7.28;;;;;;;25.49;59.56;99161.41;5076307;28;20051;-94
2022/09/06 08:54:25;;;;;;;12.23;7.60;;;;;;;25.78;59.28;99167.13;5067811;28;20102;-95
2022/09/06 08:57:02;;;;;;;11.90;7.57;;;;;;;25.77;58.58;99154.53;5076632;28;20060;-94
2022/09/06 08:59:32;;;;;;;12.32;7.68;;;;;;;25.94;57.40;99147.69;5076347;28;20040;-96
2022/09/06 09:02:04;;;;;;;14.75;8.13;;;;;;;26.13;57.56;99150.56;5078373;28;20044;-95
2022/09/06 09:04:32;;;;;;;14.73;7.80;;;;;;;26.29;56.31;99152.84;5077605;28;20394;-94
2022/09/06 09:07:12;;;;;;;15.50;8.52;;;;;;;26.04;55.28;99135.00;5077538;28;20494;-95
2022/09/06 09:09:38;;;;;;;13.23;7.85;;;;;;;26.08;56.83;99160.13;5085600;28;20040;-94
2022/09/06 09:12:05;;;;;;;12.10;7.57;;;;;;;26.26;55.75;99160.41;5104462;28;20063;-95
2022/09/06 09:14:34;;;;;;;16.67;7.65;;;;;;;26.49;55.56;99164.75;5101497;28;20089;-94
2022/09/06 09:17:08;;;;;;;12.75;7.22;;;;;;;26.66;54.95;99176.09;5101536;28;20051;-94
2022/09/06 09:19:36;;;;;;;12.40;7.53;;;;;;;26.70;54.93;99167.50;5101061;28;20036;-94
2022/09/06 09:22:04;;;;;;;14.63;7.40;;;;;;;26.54;55.86;99139.78;5100909;28;20107;-94
2022/09/06 09:24:31;;;;;;;15.52;8.25;;;;;;;26.49;54.16;99159.28;5102170;28;20040;-95
2022/09/06 09:27:02;;;;;;;12.57;7.97;;;;;;;26.26;53.90;99134.00;5101764;28;20080;-94
2022/09/06 09:29:28;;;;;;;16.30;7.72;;;;;;;26.01;54.97;99146.16;5101344;28;20050;-94
2022/09/06 09:31:55;;;;;;;15.88;8.05;;;;;;;26.16;55.70;99149.44;5102737;28;20055;-93
2022/09/06 09:34:29;;;;;;;11.80;7.90;;;;;;;26.28;55.08;99137.47;5093778;28;20064;-95
2022/09/06 09:37:18;;;;;;;12.20;8.25;;;;;;;26.56;54.73;99135.97;5101334;28;20048;-94
2022/09/06 09:39:46;;;;;;;14.88;8.13;;;;;;;26.69;54.28;99122.09;5100457;28;20072;-95
2022/09/06 09:42:23;;;;;;;15.98;7.80;;;;;;;26.97;53.85;99131.44;5100291;28;20062;-93
2022/09/06 09:44:49;;;;;;;12.85;7.88;;;;;;;26.98;53.15;99138.63;5100250;28;20060;-95
2022/09/06 09:47:24;;;;;;;13.88;7.97;;;;;;;26.97;53.57;99100.56;5101849;28;20050;-95
2022/09/06 09:49:50;;;;;;;14.75;7.90;;;;;;;27.02;53.76;99111.91;5100476;28;20048;-94
2022/09/06 09:52:24;;;;;;;12.77;7.28;;;;;;;27.37;52.78;99118.81;5099847;28;20039;-95
2022/09/06 09:54:54;;;;;;;17.88;8.48;;;;;;;27.49;52.30;99105.91;5099990;28;20051;-93
2022/09/06 09:57:21;;;;;;;14.18;7.50;;;;;;;27.56;52.56;99107.06;5100074;28;20149;-93
2022/09/06 09:59:51;;;;;;;13.38;8.15;;;;;;;27.60;52.41;99092.97;5099835;28;20153;-94
2022/09/06 10:02:22;;;;;;;13.50;7.63;;;;;;;27.72;51.28;99090.13;5096580;28;20032;-95
2022/09/06 10:04:50;;;;;;;13.68;7.13;;;;;;;27.95;52.12;99104.38;5100208;28;20127;-94
2022/09/06 10:07:20;;;;;;;12.52;7.07;;;;;;;27.95;51.21;99097.03;5098049;28;20044;-95
2022/09/06 10:09:47;;;;;;;15.25;7.65;;;;;;;27.94;51.11;99086.28;5100454;28;20839;-94
2022/09/06 10:12:17;;;;;;;10.93;7.33;;;;;;;27.88;51.26;99067.72;5101007;28;20040;-95
2022/09/06 10:14:45;;;;;;;15.70;7.10;;;;;;;27.97;51.70;99059.50;5100219;28;20044;-93
2022/09/06 10:17:29;;;;;;;15.07;7.28;;;;;;;28.04;50.78;99071.59;5100140;28;20090;-94
2022/09/06 10:19:57;;;;;;;11.40;7.13;;;;;;;28.09;50.74;99068.41;5101103;28;20040;-93
2022/09/06 10:22:28;;;;;;;10.67;7.10;;;;;;;28.00;50.31;99061.97;5100967;28;20101;-95
2022/09/06 10:25:33;;;;;;;12.05;7.20;;;;;;;28.03;49.51;99082.66;5100236;28;20067;-95
2022/09/06 10:28:24;;;;;;;13.25;7.63;;;;;;;28.05;49.68;99059.63;5099417;28;20044;-95
2022/09/06 10:31:02;;;;;;;16.92;6.93;;;;;;;28.09;48.95;99073.03;5099926;28;20500;-95
2022/09/06 10:33:40;;;;;;;13.98;7.38;;;;;;;27.89;49.70;99055.75;5099737;28;20044;-94
2022/09/06 10:36:07;;;;;;;12.10;6.85;;;;;;;27.95;49.83;99047.84;5100563;28;20040;-96
2022/09/06 10:38:47;;;;;;;10.15;7.03;;;;;;;27.93;47.70;99052.59;5101543;28;20066;-96
2022/09/06 10:41:29;;;;;;;12.50;6.90;;;;;;;27.83;48.76;99035.31;5105579;28;20048;-94
2022/09/06 10:44:07;;;;;;;11.45;6.80;;;;;;;27.94;48.59;99028.88;5101417;28;20057;-94
2022/09/06 10:46:34;;;;;;;9.27;5.93;;;;;;;27.98;48.48;99025.69;5090748;28;20401;-95
2022/09/06 10:49:00;;;;;;;9.77;5.78;;;;;;;28.22;47.79;99043.50;5104707;28;20537;-95
2022/09/06 10:51:33;;;;;;;14.65;6.47;;;;;;;28.18;44.87;99034.72;5105054;28;20082;-95
2022/09/06 10:54:07;;;;;;;9.77;6.45;;;;;;;28.12;45.38;99018.03;5103884;28;20382;-94
2022/09/06 10:56:40;;;;;;;10.82;5.70;;;;;;;28.24;43.87;99038.75;5108163;28;20040;-95
2022/09/06 10:59:16;;;;;;;11.23;5.82;;;;;;;28.19;44.17;99021.91;5108535;28;20043;-95
2022/09/06 11:01:49;;;;;;;7.15;5.13;;;;;;;28.24;42.11;99033.28;5104697;28;20105;-95
2022/09/06 11:04:24;;;;;;;10.68;5.13;;;;;;;27.97;39.63;99017.63;5094726;28;20037;-94
2022/09/06 11:06:55;;;;;;;6.60;4.80;;;;;;;28.12;41.78;99001.63;5083072;28;20194;-95
2022/09/06 11:09:28;;;;;;;10.70;5.80;;;;;;;28.33;43.08;99005.03;5082774;28;20052;-95
2022/09/06 11:12:05;;;;;;;12.07;5.40;;;;;;;28.49;42.32;99026.31;5083087;28;20524;-96
2022/09/06 11:14:32;;;;;;;11.50;5.32;;;;;;;28.54;40.97;99017.66;5082591;28;20045;-94
2022/09/06 11:17:03;;;;;;;9.73;5.53;;;;;;;28.56;43.58;99011.03;5081049;28;20044;-96
2022/09/06 11:19:37;;;;;;;12.73;5.13;;;;;;;28.43;42.13;98989.47;5082038;28;20556;-96
2022/09/06 11:22:39;;;;;;;11.70;5.32;;;;;;;28.61;40.55;99018.78;5083497;28;20049;-93
2022/09/06 11:25:52;;;;;;;9.90;5.65;;;;;;;28.62;40.63;98993.13;5040187;28;20476;-96
2022/09/06 11:28:27;;;;;;;8.88;4.40;;;;;;;28.88;36.62;98994.16;5001019;28;20051;-96
2022/09/06 11:30:56;;;;;;;10.52;4.47;;;;;;;29.07;38.24;98997.78;4998831;28;20141;-95
2022/09/06 11:33:27;;;;;;;8.18;4.07;;;;;;;28.83;35.06;98987.41;5000835;28;20082;-94
2022/09/06 11:36:16;;;;;;;13.18;4.05;;;;;;;28.98;36.81;98980.41;5024075;28;20042;-95
2022/09/06 11:38:52;;;;;;;8.05;4.10;;;;;;;29.10;35.34;98982.97;5022582;28;20488;-94
2022/09/06 11:41:26;;;;;;;9.77;4.18;;;;;;;29.21;35.38;98977.25;5021346;28;20041;-94
2022/09/06 11:43:52;;;;;;;10.52;4.70;;;;;;;29.31;37.34;98967.09;5023468;28;20533;-96
2022/09/06 11:46:55;;;;;;;11.27;4.60;;;;;;;29.45;36.37;98979.38;5022951;28;20050;-96
2022/09/06 11:49:45;;;;;;;7.85;4.32;;;;;;;29.37;35.48;98977.44;5021019;28;20116;-94
2022/09/06 11:52:56;;;;;;;8.23;3.80;;;;;;;29.34;34.41;98977.72;5014715;28;20068;-95
2022/09/06 11:55:29;;;;;;;9.80;4.32;;;;;;;29.36;33.27;98964.72;4943775;29;20545;-95
2022/09/06 11:57:58;;;;;;;7.38;4.35;;;;;;;29.41;33.38;98959.66;4946042;29;20047;-94
2022/09/06 12:00:26;;;;;;;7.97;4.18;;;;;;;29.39;33.47;98961.69;4943083;29;20114;-93
2022/09/06 12:02:52;;;;;;;8.57;3.87;;;;;;;29.30;30.79;98968.13;4952165;28;20074;-93
2022/09/06 12:05:28;;;;;;;7.68;3.35;;;;;;;29.40;34.14;98970.78;5039582;28;20109;-95
2022/09/06 12:08:27;;;;;;;6.20;3.95;;;;;;;29.51;33.97;98959.56;5023819;28;20384;-94
2022/09/06 12:11:07;;;;;;;7.25;4.13;;;;;;;29.61;33.89;98974.03;4999451;28;20531;-95
2022/09/06 12:13:53;;;;;;;7.03;4.10;;;;;;;29.41;33.36;98959.66;5023804;28;20072;-93
2022/09/06 12:16:20;;;;;;;8.32;4.03;;;;;;;29.53;34.63;98949.31;5016207;28;20045;-94